sensor_id;sensor_type;location;lat;lon;timestamp;pressure;altitude;pressure_sealevel;temperature;humidity
41334;BME280;27078;46.428;6.256;2023-03-22T00:02:11;96452.25;;;7.41;100.00
41334;BME280;27078;46.428;6.256;2023-03-22T00:04:36;96452.00;;;7.44;100.00
41334;BME280;27078;46.428;6.256;2023-03-22T00:07:02;96443.91;;;7.47;100.00
41334;BME280;27078;46.428;6.256;2023-03-22T00:09:38;96434.09;;;7.49;100.00
41334;BME280;27078;46.428;6.256;2023-03-22T00:12:04;96447.34;;;7.48;100.00
41334;BME280;27078;46.428;6.256;2023-03-22T00:14:29;96446.63;;;7.34;100.00
41334;BME280;27078;46.428;6.256;2023-03-22T00:16:54;96446.09;;;7.29;100.00
41334;BME280;27078;46.428;6.256;2023-03-22T00:19:20;96452.78;;;7.22;100.00
41334;BME280;27078;46.428;6.256;2023-03-22T00:21:46;96447.91;;;7.29;100.00
41334;BME280;27078;46.428;6.256;2023-03-22T00:24:29;96447.81;;;7.42;100.00
41334;BME280;27078;46.428;6.256;2023-03-22T00:26:55;96448.31;;;7.58;100.00
41334;BME280;27078;46.428;6.256;2023-03-22T00:29:23;96435.28;;;7.45;100.00
41334;BME280;27078;46.428;6.256;2023-03-22T00:31:49;96440.53;;;7.45;100.00
41334;BME280;27078;46.428;6.256;2023-03-22T00:34:19;96438.13;;;7.42;100.00
41334;BME280;27078;46.428;6.256;2023-03-22T00:36:47;96434.06;;;7.38;100.00
41334;BME280;27078;46.428;6.256;2023-03-22T00:42:38;96427.59;;;7.31;100.00
41334;BME280;27078;46.428;6.256;2023-03-22T00:45:06;96427.59;;;7.20;100.00
41334;BME280;27078;46.428;6.256;2023-03-22T00:47:32;96424.91;;;7.08;100.00
41334;BME280;27078;46.428;6.256;2023-03-22T00:49:58;96431.25;;;7.06;100.00
41334;BME280;27078;46.428;6.256;2023-03-22T00:52:40;96429.63;;;6.92;100.00
41334;BME280;27078;46.428;6.256;2023-03-22T00:55:11;96420.56;;;6.85;100.00
41334;BME280;27078;46.428;6.256;2023-03-22T00:57:37;96415.19;;;6.86;100.00
41334;BME280;27078;46.428;6.256;2023-03-22T01:00:07;96412.22;;;6.91;100.00
41334;BME280;27078;46.428;6.256;2023-03-22T01:02:37;96414.28;;;6.99;100.00
41334;BME280;27078;46.428;6.256;2023-03-22T01:05:05;96406.25;;;6.89;100.00
41334;BME280;27078;46.428;6.256;2023-03-22T01:07:31;96402.56;;;6.91;100.00
41334;BME280;27078;46.428;6.256;2023-03-22T01:09:57;96398.03;;;6.93;100.00
41334;BME280;27078;46.428;6.256;2023-03-22T01:12:26;96399.34;;;6.88;100.00
41334;BME280;27078;46.428;6.256;2023-03-22T01:14:54;96397.16;;;6.82;100.00
41334;BME280;27078;46.428;6.256;2023-03-22T01:20:30;96392.38;;;6.76;100.00
41334;BME280;27078;46.428;6.256;2023-03-22T01:23:14;96391.03;;;6.70;100.00
41334;BME280;27078;46.428;6.256;2023-03-22T01:25:57;96387.56;;;6.69;100.00
41334;BME280;27078;46.428;6.256;2023-03-22T01:28:22;96384.56;;;6.63;100.00
41334;BME280;27078;46.428;6.256;2023-03-22T01:30:48;96384.66;;;6.61;100.00
41334;BME280;27078;46.428;6.256;2023-03-22T01:33:24;96384.22;;;6.67;100.00
41334;BME280;27078;46.428;6.256;2023-03-22T01:35:50;96378.06;;;6.56;100.00
41334;BME280;27078;46.428;6.256;2023-03-22T01:38:16;96383.94;;;6.59;100.00
41334;BME280;27078;46.428;6.256;2023-03-22T01:41:09;96382.25;;;6.58;100.00
41334;BME280;27078;46.428;6.256;2023-03-22T01:47:01;96383.91;;;6.48;100.00
41334;BME280;27078;46.428;6.256;2023-03-22T01:49:32;96382.22;;;6.47;100.00
41334;BME280;27078;46.428;6.256;2023-03-22T01:52:03;96378.25;;;6.41;100.00
41334;BME280;27078;46.428;6.256;2023-03-22T01:54:44;96369.28;;;6.32;100.00
41334;BME280;27078;46.428;6.256;2023-03-22T01:57:11;96369.94;;;6.23;100.00
41334;BME280;27078;46.428;6.256;2023-03-22T01:59:39;96375.25;;;6.35;100.00
41334;BME280;27078;46.428;6.256;2023-03-22T02:02:05;96373.28;;;6.49;100.00
41334;BME280;27078;46.428;6.256;2023-03-22T02:04:35;96377.22;;;6.44;100.00
41334;BME280;27078;46.428;6.256;2023-03-22T02:07:07;96373.25;;;6.38;100.00
41334;BME280;27078;46.428;6.256;2023-03-22T02:09:37;96377.13;;;6.32;100.00
41334;BME280;27078;46.428;6.256;2023-03-22T02:15:26;96378.97;;;6.19;100.00
41334;BME280;27078;46.428;6.256;2023-03-22T02:29:50;96354.50;;;5.95;100.00
41334;BME280;27078;46.428;6.256;2023-03-22T02:35:17;96355.38;;;5.95;100.00
41334;BME280;27078;46.428;6.256;2023-03-22T02:41:10;96359.00;;;5.92;100.00
41334;BME280;27078;46.428;6.256;2023-03-22T02:43:50;96352.19;;;5.90;100.00
41334;BME280;27078;46.428;6.256;2023-03-22T02:46:45;96355.69;;;5.90;100.00
41334;BME280;27078;46.428;6.256;2023-03-22T02:49:36;96362.19;;;5.85;100.00
41334;BME280;27078;46.428;6.256;2023-03-22T02:52:09;96357.03;;;5.83;100.00
41334;BME280;27078;46.428;6.256;2023-03-22T02:54:54;96360.69;;;5.94;100.00
41334;BME280;27078;46.428;6.256;2023-03-22T02:57:41;96358.91;;;5.94;100.00
41334;BME280;27078;46.428;6.256;2023-03-22T03:00:10;96367.53;;;5.96;100.00
41334;BME280;27078;46.428;6.256;2023-03-22T03:02:42;96368.50;;;5.82;100.00
41334;BME280;27078;46.428;6.256;2023-03-22T03:05:09;96369.44;;;5.68;100.00
41334;BME280;27078;46.428;6.256;2023-03-22T03:07:36;96374.72;;;5.56;100.00
41334;BME280;27078;46.428;6.256;2023-03-22T03:10:22;96375.69;;;5.55;100.00
41334;BME280;27078;46.428;6.256;2023-03-22T03:12:47;96367.59;;;5.58;100.00
41334;BME280;27078;46.428;6.256;2023-03-22T03:15:16;96367.81;;;5.55;100.00
41334;BME280;27078;46.428;6.256;2023-03-22T03:20:52;96369.16;;;5.47;100.00
41334;BME280;27078;46.428;6.256;2023-03-22T03:26:46;96365.28;;;5.53;100.00
41334;BME280;27078;46.428;6.256;2023-03-22T03:29:32;96366.81;;;5.68;100.00
41334;BME280;27078;46.428;6.256;2023-03-22T03:32:06;96369.34;;;5.70;100.00
41334;BME280;27078;46.428;6.256;2023-03-22T03:37:08;96360.28;;;5.87;100.00
41334;BME280;27078;46.428;6.256;2023-03-22T03:39:38;96367.19;;;5.88;100.00
41334;BME280;27078;46.428;6.256;2023-03-22T03:42:10;96375.22;;;5.74;100.00
41334;BME280;27078;46.428;6.256;2023-03-22T03:44:37;96376.81;;;5.63;100.00
41334;BME280;27078;46.428;6.256;2023-03-22T03:47:05;96382.06;;;5.50;100.00
41334;BME280;27078;46.428;6.256;2023-03-22T03:49:31;96385.53;;;5.51;100.00
41334;BME280;27078;46.428;6.256;2023-03-22T03:51:58;96386.88;;;5.57;100.00
41334;BME280;27078;46.428;6.256;2023-03-22T03:54:23;96388.56;;;5.45;100.00
41334;BME280;27078;46.428;6.256;2023-03-22T03:56:49;96390.78;;;5.38;100.00
41334;BME280;27078;46.428;6.256;2023-03-22T03:59:16;96398.63;;;5.38;100.00
41334;BME280;27078;46.428;6.256;2023-03-22T04:01:42;96394.72;;;5.31;100.00
41334;BME280;27078;46.428;6.256;2023-03-22T04:04:19;96399.47;;;5.13;100.00
41334;BME280;27078;46.428;6.256;2023-03-22T04:06:55;96385.84;;;5.08;100.00
41334;BME280;27078;46.428;6.256;2023-03-22T04:09:23;96395.44;;;4.95;100.00
41334;BME280;27078;46.428;6.256;2023-03-22T04:11:48;96397.56;;;5.02;100.00
41334;BME280;27078;46.428;6.256;2023-03-22T04:14:14;96396.28;;;4.95;100.00
41334;BME280;27078;46.428;6.256;2023-03-22T04:16:39;96387.69;;;4.93;100.00
41334;BME280;27078;46.428;6.256;2023-03-22T04:19:05;96400.59;;;5.09;100.00
41334;BME280;27078;46.428;6.256;2023-03-22T04:21:30;96394.72;;;5.05;100.00
41334;BME280;27078;46.428;6.256;2023-03-22T04:23:55;96401.44;;;5.09;100.00
41334;BME280;27078;46.428;6.256;2023-03-22T04:26:21;96387.28;;;5.12;100.00
41334;BME280;27078;46.428;6.256;2023-03-22T04:28:46;96393.81;;;5.06;100.00
41334;BME280;27078;46.428;6.256;2023-03-22T04:31:11;96391.81;;;5.23;100.00
41334;BME280;27078;46.428;6.256;2023-03-22T04:33:37;96387.75;;;5.06;100.00
41334;BME280;27078;46.428;6.256;2023-03-22T04:36:05;96392.94;;;4.93;100.00
41334;BME280;27078;46.428;6.256;2023-03-22T04:38:31;96382.47;;;4.93;100.00
41334;BME280;27078;46.428;6.256;2023-03-22T04:40:57;96386.66;;;4.83;100.00
41334;BME280;27078;46.428;6.256;2023-03-22T04:43:22;96383.31;;;4.81;100.00
41334;BME280;27078;46.428;6.256;2023-03-22T04:45:48;96386.66;;;4.83;100.00
41334;BME280;27078;46.428;6.256;2023-03-22T04:48:13;96380.75;;;4.66;100.00
41334;BME280;27078;46.428;6.256;2023-03-22T04:50:38;96376.25;;;4.68;100.00
41334;BME280;27078;46.428;6.256;2023-03-22T04:53:05;96383.81;;;4.73;100.00
41334;BME280;27078;46.428;6.256;2023-03-22T04:55:30;96380.69;;;4.81;100.00
41334;BME280;27078;46.428;6.256;2023-03-22T04:57:58;96369.06;;;4.85;100.00
41334;BME280;27078;46.428;6.256;2023-03-22T05:00:23;96377.13;;;4.95;100.00
41334;BME280;27078;46.428;6.256;2023-03-22T05:02:48;96372.00;;;4.93;100.00
41334;BME280;27078;46.428;6.256;2023-03-22T05:05:14;96377.88;;;4.97;100.00
41334;BME280;27078;46.428;6.256;2023-03-22T05:07:39;96375.06;;;5.00;100.00
41334;BME280;27078;46.428;6.256;2023-03-22T05:10:06;96369.50;;;5.04;100.00
41334;BME280;27078;46.428;6.256;2023-03-22T05:12:31;96366.56;;;5.09;100.00
41334;BME280;27078;46.428;6.256;2023-03-22T05:14:56;96372.44;;;5.25;100.00
41334;BME280;27078;46.428;6.256;2023-03-22T05:17:22;96366.16;;;5.15;100.00
41334;BME280;27078;46.428;6.256;2023-03-22T05:19:47;96361.75;;;5.16;100.00
41334;BME280;27078;46.428;6.256;2023-03-22T05:22:12;96365.53;;;5.12;100.00
41334;BME280;27078;46.428;6.256;2023-03-22T05:24:38;96373.28;;;5.13;100.00
41334;BME280;27078;46.428;6.256;2023-03-22T05:27:03;96376.00;;;5.12;100.00
41334;BME280;27078;46.428;6.256;2023-03-22T05:29:29;96377.28;;;5.19;100.00
41334;BME280;27078;46.428;6.256;2023-03-22T05:32:02;96375.91;;;5.13;100.00
41334;BME280;27078;46.428;6.256;2023-03-22T05:34:27;96383.50;;;4.90;100.00
41334;BME280;27078;46.428;6.256;2023-03-22T05:37:00;96381.81;;;4.64;100.00
41334;BME280;27078;46.428;6.256;2023-03-22T05:39:25;96384.81;;;4.58;100.00
41334;BME280;27078;46.428;6.256;2023-03-22T05:41:51;96384.31;;;4.65;100.00
41334;BME280;27078;46.428;6.256;2023-03-22T05:44:16;96383.50;;;4.78;100.00
41334;BME280;27078;46.428;6.256;2023-03-22T05:46:41;96386.34;;;4.87;100.00
41334;BME280;27078;46.428;6.256;2023-03-22T05:49:07;96382.59;;;5.04;100.00
41334;BME280;27078;46.428;6.256;2023-03-22T05:51:32;96389.63;;;5.04;100.00
41334;BME280;27078;46.428;6.256;2023-03-22T05:54:00;96382.19;;;5.23;100.00
41334;BME280;27078;46.428;6.256;2023-03-22T05:56:26;96383.75;;;5.26;100.00
41334;BME280;27078;46.428;6.256;2023-03-22T05:58:51;96379.56;;;5.23;100.00
41334;BME280;27078;46.428;6.256;2023-03-22T06:01:17;96382.59;;;5.30;100.00
41334;BME280;27078;46.428;6.256;2023-03-22T06:03:44;96387.94;;;5.41;100.00
41334;BME280;27078;46.428;6.256;2023-03-22T06:06:10;96385.09;;;5.57;100.00
41334;BME280;27078;46.428;6.256;2023-03-22T06:08:36;96389.59;;;5.55;100.00
41334;BME280;27078;46.428;6.256;2023-03-22T06:11:02;96390.44;;;5.56;100.00
41334;BME280;27078;46.428;6.256;2023-03-22T06:13:28;96393.56;;;5.61;100.00
41334;BME280;27078;46.428;6.256;2023-03-22T06:15:53;96395.75;;;5.67;100.00
41334;BME280;27078;46.428;6.256;2023-03-22T06:18:19;96391.88;;;5.72;100.00
41334;BME280;27078;46.428;6.256;2023-03-22T06:20:44;96394.38;;;6.00;100.00
41334;BME280;27078;46.428;6.256;2023-03-22T06:23:09;96397.69;;;6.15;100.00
41334;BME280;27078;46.428;6.256;2023-03-22T06:25:35;96392.81;;;6.21;100.00
41334;BME280;27078;46.428;6.256;2023-03-22T06:28:01;96392.28;;;6.29;100.00
41334;BME280;27078;46.428;6.256;2023-03-22T06:30:26;96394.00;;;6.41;100.00
41334;BME280;27078;46.428;6.256;2023-03-22T06:32:52;96396.06;;;6.49;100.00
41334;BME280;27078;46.428;6.256;2023-03-22T06:35:17;96388.47;;;6.57;100.00
41334;BME280;27078;46.428;6.256;2023-03-22T06:37:42;96389.69;;;6.64;100.00
41334;BME280;27078;46.428;6.256;2023-03-22T06:40:08;96388.78;;;6.77;100.00
41334;BME280;27078;46.428;6.256;2023-03-22T06:42:34;96392.16;;;6.90;100.00
41334;BME280;27078;46.428;6.256;2023-03-22T06:44:59;96391.84;;;7.06;100.00
41334;BME280;27078;46.428;6.256;2023-03-22T06:47:25;96397.84;;;7.19;100.00
41334;BME280;27078;46.428;6.256;2023-03-22T06:49:51;96405.63;;;7.32;100.00
41334;BME280;27078;46.428;6.256;2023-03-22T06:52:16;96402.78;;;7.46;100.00
41334;BME280;27078;46.428;6.256;2023-03-22T06:54:41;96390.88;;;7.53;100.00
41334;BME280;27078;46.428;6.256;2023-03-22T06:57:07;96392.88;;;7.61;100.00
41334;BME280;27078;46.428;6.256;2023-03-22T06:59:32;96402.56;;;7.72;100.00
41334;BME280;27078;46.428;6.256;2023-03-22T07:01:58;96399.94;;;7.94;100.00
41334;BME280;27078;46.428;6.256;2023-03-22T07:04:23;96393.22;;;8.02;100.00
41334;BME280;27078;46.428;6.256;2023-03-22T07:06:50;96393.06;;;8.26;100.00
41334;BME280;27078;46.428;6.256;2023-03-22T07:09:15;96396.28;;;8.41;100.00
41334;BME280;27078;46.428;6.256;2023-03-22T07:11:41;96402.47;;;8.51;100.00
41334;BME280;27078;46.428;6.256;2023-03-22T07:14:06;96399.91;;;8.61;100.00
41334;BME280;27078;46.428;6.256;2023-03-22T07:16:31;96395.56;;;8.71;100.00
41334;BME280;27078;46.428;6.256;2023-03-22T07:18:57;96391.34;;;8.80;100.00
41334;BME280;27078;46.428;6.256;2023-03-22T07:21:22;96397.72;;;8.98;100.00
41334;BME280;27078;46.428;6.256;2023-03-22T07:23:47;96403.66;;;9.11;100.00
41334;BME280;27078;46.428;6.256;2023-03-22T07:26:13;96392.97;;;9.34;100.00
41334;BME280;27078;46.428;6.256;2023-03-22T07:28:38;96390.88;;;9.58;100.00
41334;BME280;27078;46.428;6.256;2023-03-22T07:31:08;96392.34;;;9.72;100.00
41334;BME280;27078;46.428;6.256;2023-03-22T07:33:36;96401.00;;;9.84;100.00
41334;BME280;27078;46.428;6.256;2023-03-22T07:36:01;96392.28;;;9.93;100.00
41334;BME280;27078;46.428;6.256;2023-03-22T07:38:26;96397.78;;;10.21;100.00
41334;BME280;27078;46.428;6.256;2023-03-22T07:40:52;96400.63;;;10.39;100.00
41334;BME280;27078;46.428;6.256;2023-03-22T07:43:21;96403.84;;;10.43;100.00
41334;BME280;27078;46.428;6.256;2023-03-22T07:45:50;96401.50;;;10.59;100.00
41334;BME280;27078;46.428;6.256;2023-03-22T07:48:17;96395.66;;;10.46;100.00
41334;BME280;27078;46.428;6.256;2023-03-22T07:50:43;96407.09;;;10.75;100.00
41334;BME280;27078;46.428;6.256;2023-03-22T07:53:09;96401.91;;;10.84;100.00
41334;BME280;27078;46.428;6.256;2023-03-22T07:55:35;96402.06;;;10.92;100.00
41334;BME280;27078;46.428;6.256;2023-03-22T07:58:01;96410.81;;;11.02;100.00
41334;BME280;27078;46.428;6.256;2023-03-22T08:00:27;96401.22;;;11.20;100.00
41334;BME280;27078;46.428;6.256;2023-03-22T08:02:52;96406.19;;;11.43;100.00
41334;BME280;27078;46.428;6.256;2023-03-22T08:05:17;96405.34;;;11.52;100.00
41334;BME280;27078;46.428;6.256;2023-03-22T08:07:43;96409.75;;;11.61;100.00
41334;BME280;27078;46.428;6.256;2023-03-22T08:10:09;96411.31;;;11.54;100.00
41334;BME280;27078;46.428;6.256;2023-03-22T08:12:34;96413.09;;;11.64;100.00
41334;BME280;27078;46.428;6.256;2023-03-22T08:15:00;96413.38;;;11.60;100.00
41334;BME280;27078;46.428;6.256;2023-03-22T08:17:25;96416.31;;;11.57;100.00
41334;BME280;27078;46.428;6.256;2023-03-22T08:19:51;96411.38;;;11.72;100.00
41334;BME280;27078;46.428;6.256;2023-03-22T08:22:19;96409.72;;;11.81;100.00
41334;BME280;27078;46.428;6.256;2023-03-22T08:24:49;96409.13;;;11.97;99.96
41334;BME280;27078;46.428;6.256;2023-03-22T08:27:15;96410.50;;;12.01;100.00
41334;BME280;27078;46.428;6.256;2023-03-22T08:29:41;96413.53;;;12.06;100.00
41334;BME280;27078;46.428;6.256;2023-03-22T08:32:06;96410.53;;;11.81;97.70
41334;BME280;27078;46.428;6.256;2023-03-22T08:34:39;96413.03;;;11.83;100.00
41334;BME280;27078;46.428;6.256;2023-03-22T08:37:05;96403.63;;;12.08;100.00
41334;BME280;27078;46.428;6.256;2023-03-22T08:39:31;96403.78;;;12.34;97.36
41334;BME280;27078;46.428;6.256;2023-03-22T08:41:57;96397.91;;;12.58;93.45
41334;BME280;27078;46.428;6.256;2023-03-22T08:44:22;96403.38;;;12.75;88.48
41334;BME280;27078;46.428;6.256;2023-03-22T08:46:48;96391.31;;;12.80;85.63
41334;BME280;27078;46.428;6.256;2023-03-22T08:49:13;96391.19;;;13.00;88.15
41334;BME280;27078;46.428;6.256;2023-03-22T08:51:39;96397.25;;;13.10;82.76
41334;BME280;27078;46.428;6.256;2023-03-22T08:54:05;96397.94;;;13.12;83.69
41334;BME280;27078;46.428;6.256;2023-03-22T08:56:30;96399.44;;;12.97;81.62
41334;BME280;27078;46.428;6.256;2023-03-22T08:58:57;96395.72;;;12.90;87.65
41334;BME280;27078;46.428;6.256;2023-03-22T09:01:22;96396.16;;;13.03;83.06
41334;BME280;27078;46.428;6.256;2023-03-22T09:03:49;96391.69;;;13.21;79.86
41334;BME280;27078;46.428;6.256;2023-03-22T09:06:15;96396.00;;;13.22;77.96
41334;BME280;27078;46.428;6.256;2023-03-22T09:08:40;96385.09;;;13.26;75.74
41334;BME280;27078;46.428;6.256;2023-03-22T09:11:11;96388.56;;;13.44;79.24
41334;BME280;27078;46.428;6.256;2023-03-22T09:13:36;96380.22;;;13.57;79.61
41334;BME280;27078;46.428;6.256;2023-03-22T09:16:03;96375.25;;;13.62;80.00
41334;BME280;27078;46.428;6.256;2023-03-22T09:18:28;96383.41;;;13.69;80.28
41334;BME280;27078;46.428;6.256;2023-03-22T09:20:54;96385.03;;;13.61;79.43
41334;BME280;27078;46.428;6.256;2023-03-22T09:23:20;96381.56;;;13.61;83.18
41334;BME280;27078;46.428;6.256;2023-03-22T09:25:46;96378.91;;;13.61;84.18
41334;BME280;27078;46.428;6.256;2023-03-22T09:28:12;96389.50;;;13.35;83.09
41334;BME280;27078;46.428;6.256;2023-03-22T09:30:37;96376.91;;;13.63;80.62
41334;BME280;27078;46.428;6.256;2023-03-22T09:33:03;96379.94;;;13.68;77.20
41334;BME280;27078;46.428;6.256;2023-03-22T09:35:29;96375.88;;;13.90;85.84
41334;BME280;27078;46.428;6.256;2023-03-22T09:37:54;96366.22;;;14.15;77.00
41334;BME280;27078;46.428;6.256;2023-03-22T09:40:24;96369.72;;;14.24;78.69
41334;BME280;27078;46.428;6.256;2023-03-22T09:42:53;96365.81;;;14.44;74.16
41334;BME280;27078;46.428;6.256;2023-03-22T09:45:32;96364.66;;;14.47;76.28
41334;BME280;27078;46.428;6.256;2023-03-22T09:48:05;96356.28;;;14.84;73.46
41334;BME280;27078;46.428;6.256;2023-03-22T09:50:31;96360.25;;;14.80;70.75
41334;BME280;27078;46.428;6.256;2023-03-22T09:52:58;96363.25;;;14.94;73.60
41334;BME280;27078;46.428;6.256;2023-03-22T09:55:40;96359.25;;;14.90;68.78
41334;BME280;27078;46.428;6.256;2023-03-22T09:58:18;96354.97;;;14.97;68.63
41334;BME280;27078;46.428;6.256;2023-03-22T10:00:59;96360.59;;;15.02;69.52
41334;BME280;27078;46.428;6.256;2023-03-22T10:06:23;96358.28;;;15.07;70.63
41334;BME280;27078;46.428;6.256;2023-03-22T10:11:45;96354.94;;;15.30;69.72
41334;BME280;27078;46.428;6.256;2023-03-22T10:14:26;96349.91;;;15.51;71.01
41334;BME280;27078;46.428;6.256;2023-03-22T10:16:55;96337.91;;;15.72;78.97
41334;BME280;27078;46.428;6.256;2023-03-22T10:19:30;96340.53;;;15.88;73.54
41334;BME280;27078;46.428;6.256;2023-03-22T10:21:59;96340.97;;;16.00;77.33
41334;BME280;27078;46.428;6.256;2023-03-22T10:24:33;96341.75;;;15.77;69.81
41334;BME280;27078;46.428;6.256;2023-03-22T10:27:00;96335.50;;;15.93;71.33
41334;BME280;27078;46.428;6.256;2023-03-22T10:31:54;96337.72;;;15.90;74.62
41334;BME280;27078;46.428;6.256;2023-03-22T10:34:22;96330.59;;;15.74;70.93
41334;BME280;27078;46.428;6.256;2023-03-22T10:36:50;96328.06;;;15.80;75.17
41334;BME280;27078;46.428;6.256;2023-03-22T10:39:47;96330.31;;;16.00;74.42
41334;BME280;27078;46.428;6.256;2023-03-22T10:42:20;96324.44;;;16.13;72.47
41334;BME280;27078;46.428;6.256;2023-03-22T10:44:48;96325.91;;;16.23;71.19
41334;BME280;27078;46.428;6.256;2023-03-22T10:47:26;96322.81;;;16.03;72.07
41334;BME280;27078;46.428;6.256;2023-03-22T10:49:55;96314.63;;;16.13;78.42
41334;BME280;27078;46.428;6.256;2023-03-22T10:52:44;96306.13;;;16.18;77.78
41334;BME280;27078;46.428;6.256;2023-03-22T10:55:14;96311.69;;;16.00;78.45
41334;BME280;27078;46.428;6.256;2023-03-22T10:57:42;96314.34;;;15.44;75.83
41334;BME280;27078;46.428;6.256;2023-03-22T11:00:14;96313.91;;;15.07;79.70
41334;BME280;27078;46.428;6.256;2023-03-22T11:02:56;96314.22;;;15.13;84.79
41334;BME280;27078;46.428;6.256;2023-03-22T11:05:27;96307.03;;;15.30;81.56
41334;BME280;27078;46.428;6.256;2023-03-22T11:07:53;96299.19;;;15.44;81.61
41334;BME280;27078;46.428;6.256;2023-03-22T11:10:25;96300.31;;;15.75;82.88
41334;BME280;27078;46.428;6.256;2023-03-22T11:13:09;96296.38;;;15.94;77.71
41334;BME280;27078;46.428;6.256;2023-03-22T11:15:42;96292.53;;;16.04;71.93
41334;BME280;27078;46.428;6.256;2023-03-22T11:18:14;96288.09;;;16.28;73.68
41334;BME280;27078;46.428;6.256;2023-03-22T11:20:42;96281.69;;;16.37;69.89
41334;BME280;27078;46.428;6.256;2023-03-22T11:23:16;96282.22;;;16.56;73.85
41334;BME280;27078;46.428;6.256;2023-03-22T11:25:45;96285.66;;;16.64;74.44
41334;BME280;27078;46.428;6.256;2023-03-22T11:31:10;96275.19;;;16.63;70.28
41334;BME280;27078;46.428;6.256;2023-03-22T11:33:36;96276.13;;;16.70;72.84
41334;BME280;27078;46.428;6.256;2023-03-22T11:36:22;96277.78;;;16.71;80.97
41334;BME280;27078;46.428;6.256;2023-03-22T11:38:58;96272.81;;;16.91;77.49
41334;BME280;27078;46.428;6.256;2023-03-22T11:41:26;96262.13;;;16.91;75.18
41334;BME280;27078;46.428;6.256;2023-03-22T11:43:54;96265.84;;;17.05;74.11
41334;BME280;27078;46.428;6.256;2023-03-22T11:46:21;96260.72;;;17.18;72.65
41334;BME280;27078;46.428;6.256;2023-03-22T11:48:49;96254.97;;;17.29;73.73
41334;BME280;27078;46.428;6.256;2023-03-22T11:51:24;96257.72;;;17.36;73.70
41334;BME280;27078;46.428;6.256;2023-03-22T11:53:54;96259.28;;;17.45;76.01
41334;BME280;27078;46.428;6.256;2023-03-22T11:56:26;96244.28;;;17.44;72.49
41334;BME280;27078;46.428;6.256;2023-03-22T11:58:56;96249.81;;;17.43;72.19
41334;BME280;27078;46.428;6.256;2023-03-22T12:01:48;96246.03;;;17.52;73.18
41334;BME280;27078;46.428;6.256;2023-03-22T12:04:18;96238.38;;;17.64;74.12
41334;BME280;27078;46.428;6.256;2023-03-22T12:06:47;96231.75;;;17.75;76.31
41334;BME280;27078;46.428;6.256;2023-03-22T12:09:34;96226.97;;;17.70;73.66
41334;BME280;27078;46.428;6.256;2023-03-22T12:12:03;96225.56;;;17.74;71.69
41334;BME280;27078;46.428;6.256;2023-03-22T12:14:42;96217.66;;;17.81;71.13
41334;BME280;27078;46.428;6.256;2023-03-22T12:17:16;96219.59;;;17.87;72.29
41334;BME280;27078;46.428;6.256;2023-03-22T12:22:17;96208.81;;;17.95;74.59
41334;BME280;27078;46.428;6.256;2023-03-22T12:24:44;96201.56;;;18.10;75.27
41334;BME280;27078;46.428;6.256;2023-03-22T12:27:27;96201.03;;;18.00;71.08
41334;BME280;27078;46.428;6.256;2023-03-22T12:30:05;96202.91;;;18.21;73.23
41334;BME280;27078;46.428;6.256;2023-03-22T12:32:57;96198.66;;;18.48;70.20
41334;BME280;27078;46.428;6.256;2023-03-22T12:35:30;96194.31;;;18.47;67.57
41334;BME280;27078;46.428;6.256;2023-03-22T12:38:00;96188.34;;;18.67;73.76
41334;BME280;27078;46.428;6.256;2023-03-22T12:40:36;96185.78;;;18.59;65.97
41334;BME280;27078;46.428;6.256;2023-03-22T12:45:33;96189.25;;;18.52;60.21
41334;BME280;27078;46.428;6.256;2023-03-22T12:50:51;96180.38;;;18.74;59.41
41334;BME280;27078;46.428;6.256;2023-03-22T12:53:21;96181.44;;;18.79;59.81
41334;BME280;27078;46.428;6.256;2023-03-22T12:55:51;96179.41;;;18.81;63.60
41334;BME280;27078;46.428;6.256;2023-03-22T12:58:22;96171.50;;;18.95;66.14
41334;BME280;27078;46.428;6.256;2023-03-22T13:00:54;96171.88;;;18.91;67.37
41334;BME280;27078;46.428;6.256;2023-03-22T13:03:26;96165.75;;;18.98;65.79
41334;BME280;27078;46.428;6.256;2023-03-22T13:06:02;96167.88;;;19.09;66.97
41334;BME280;27078;46.428;6.256;2023-03-22T13:11:45;96168.72;;;18.81;61.19
41334;BME280;27078;46.428;6.256;2023-03-22T13:35:45;96132.88;;;18.04;72.96
41334;BME280;27078;46.428;6.256;2023-03-22T13:38:20;96130.81;;;18.28;67.63
41334;BME280;27078;46.428;6.256;2023-03-22T13:40:55;96125.84;;;18.46;64.69
41334;BME280;27078;46.428;6.256;2023-03-22T13:43:30;96124.72;;;18.62;59.46
41334;BME280;27078;46.428;6.256;2023-03-22T14:04:38;96097.00;;;18.98;51.20
41334;BME280;27078;46.428;6.256;2023-03-22T14:07:29;96092.22;;;19.28;58.53
41334;BME280;27078;46.428;6.256;2023-03-22T14:10:03;96088.34;;;19.38;56.53
41334;BME280;27078;46.428;6.256;2023-03-22T14:13:02;96089.47;;;19.63;56.23
41334;BME280;27078;46.428;6.256;2023-03-22T14:15:37;96087.06;;;19.82;54.62
41334;BME280;27078;46.428;6.256;2023-03-22T14:18:14;96081.53;;;19.90;55.72
41334;BME280;27078;46.428;6.256;2023-03-22T14:20:42;96075.56;;;19.95;60.23
41334;BME280;27078;46.428;6.256;2023-03-22T14:25:38;96076.19;;;20.10;52.54
41334;BME280;27078;46.428;6.256;2023-03-22T14:28:05;96075.78;;;20.20;52.85
41334;BME280;27078;46.428;6.256;2023-03-22T14:30:47;96071.88;;;20.29;51.58
41334;BME280;27078;46.428;6.256;2023-03-22T14:33:18;96072.69;;;20.43;52.21
41334;BME280;27078;46.428;6.256;2023-03-22T14:35:53;96071.47;;;20.59;51.11
41334;BME280;27078;46.428;6.256;2023-03-22T14:38:21;96064.84;;;20.61;51.56
41334;BME280;27078;46.428;6.256;2023-03-22T14:40:52;96057.00;;;20.73;48.95
41334;BME280;27078;46.428;6.256;2023-03-22T14:43:29;96047.09;;;20.73;48.77
41334;BME280;27078;46.428;6.256;2023-03-22T14:46:21;96044.59;;;20.72;47.30
41334;BME280;27078;46.428;6.256;2023-03-22T14:48:53;96044.59;;;20.72;46.86
41334;BME280;27078;46.428;6.256;2023-03-22T14:51:38;96039.25;;;20.72;45.62
41334;BME280;27078;46.428;6.256;2023-03-22T14:54:09;96036.78;;;20.77;52.50
41334;BME280;27078;46.428;6.256;2023-03-22T14:56:41;96041.69;;;20.87;50.92
41334;BME280;27078;46.428;6.256;2023-03-22T14:59:12;96046.22;;;21.00;51.01